createdAt,value
2019-04-30T00:00:47.463Z,15.00
2019-04-30T00:03:24.921Z,15.00
2019-04-30T00:05:57.373Z,14.90
2019-04-30T00:08:25.834Z,15.00
2019-04-30T00:10:55.822Z,14.90
2019-04-30T00:13:25.875Z,14.90
2019-04-30T00:15:58.710Z,14.90
2019-04-30T00:18:26.326Z,14.90
2019-04-30T00:20:55.560Z,14.90
2019-04-30T00:23:27.241Z,14.90
2019-04-30T00:25:58.393Z,14.90
2019-04-30T00:28:26.608Z,14.90
2019-04-30T00:30:56.317Z,14.90
2019-04-30T00:33:27.727Z,14.90
2019-04-30T00:35:58.026Z,14.90
2019-04-30T00:38:29.518Z,14.90
2019-04-30T00:41:01.851Z,14.90
2019-04-30T00:43:29.259Z,14.90
2019-04-30T00:45:58.508Z,14.90
2019-04-30T00:48:31.091Z,14.90
2019-04-30T00:50:58.755Z,14.90
2019-04-30T00:53:28.076Z,14.90
2019-04-30T00:55:57.416Z,14.90
2019-04-30T00:58:30.213Z,14.90
2019-04-30T01:01:08.209Z,14.90
2019-04-30T01:03:39.419Z,14.90
2019-04-30T01:06:09.976Z,14.90
2019-04-30T01:08:39.303Z,14.90
2019-04-30T01:11:09.646Z,14.90
2019-04-30T01:13:41.435Z,14.90
2019-04-30T01:16:10.051Z,14.90
2019-04-30T01:18:39.307Z,14.80
2019-04-30T01:21:11.240Z,14.80
2019-04-30T01:23:43.084Z,14.80
2019-04-30T01:26:10.287Z,14.80
2019-04-30T01:28:39.524Z,14.80
2019-04-30T01:31:09.040Z,14.80
2019-04-30T01:33:39.028Z,14.80
2019-04-30T01:36:12.194Z,14.80
2019-04-30T01:38:40.347Z,14.80
2019-04-30T01:41:10.104Z,14.80
2019-04-30T01:43:39.352Z,14.80
2019-04-30T01:46:13.711Z,14.80
2019-04-30T01:48:43.497Z,14.80
2019-04-30T01:51:13.384Z,14.80
2019-04-30T01:53:43.656Z,14.80
2019-04-30T01:56:14.978Z,14.80
2019-04-30T01:58:49.537Z,14.80
2019-04-30T02:01:20.500Z,14.80
2019-04-30T02:03:49.736Z,14.80
2019-04-30T02:06:19.674Z,14.80
2019-04-30T02:08:49.362Z,14.80
2019-04-30T02:11:19.387Z,14.80
2019-04-30T02:13:49.266Z,14.80
2019-04-30T02:16:21.029Z,14.80
2019-04-30T02:18:49.647Z,14.80
2019-04-30T02:21:19.468Z,14.80
2019-04-30T02:23:50.083Z,14.80
2019-04-30T02:26:19.331Z,14.80
2019-04-30T02:28:49.533Z,14.70
2019-04-30T02:31:22.739Z,14.70
2019-04-30T02:33:51.552Z,14.70
2019-04-30T02:36:25.403Z,14.70
2019-04-30T02:39:02.290Z,14.70
2019-04-30T02:41:29.288Z,14.70
2019-04-30T02:43:59.803Z,14.70
2019-04-30T02:46:32.281Z,14.70
2019-04-30T02:49:00.160Z,14.70
2019-04-30T02:51:30.173Z,14.70
2019-04-30T02:54:09.776Z,14.70
2019-04-30T02:56:41.172Z,14.70
2019-04-30T02:59:10.552Z,14.70
2019-04-30T03:01:40.469Z,14.70
2019-04-30T03:04:10.253Z,14.70
2019-04-30T03:06:40.373Z,14.70
2019-04-30T03:09:10.692Z,14.70
2019-04-30T03:11:40.681Z,14.70
2019-04-30T03:14:10.919Z,14.70
2019-04-30T03:16:45.569Z,14.70
2019-04-30T03:19:19.706Z,14.60
2019-04-30T03:22:02.798Z,14.70
2019-04-30T03:24:32.047Z,14.70
2019-04-30T03:27:01.294Z,14.60
2019-04-30T03:29:30.592Z,14.60
2019-04-30T03:32:02.918Z,14.60
2019-04-30T03:34:32.694Z,14.60
2019-04-30T03:37:02.066Z,14.60
2019-04-30T03:39:33.818Z,14.60
2019-04-30T03:42:02.444Z,14.60
2019-04-30T03:44:32.469Z,14.60
2019-04-30T03:47:01.946Z,14.60
2019-04-30T03:49:31.182Z,14.60
2019-04-30T03:52:00.441Z,14.60
2019-04-30T03:54:29.693Z,14.60
2019-04-30T03:57:00.948Z,14.60
2019-04-30T03:59:30.657Z,14.60
2019-04-30T04:02:01.552Z,14.60
2019-04-30T04:04:35.217Z,14.60
2019-04-30T04:07:11.821Z,14.60
2019-04-30T04:09:42.719Z,14.60
2019-04-30T04:12:21.942Z,14.60
2019-04-30T04:14:51.439Z,14.60
2019-04-30T04:17:21.404Z,14.60
2019-04-30T04:19:51.732Z,14.60
2019-04-30T04:22:21.023Z,14.60
2019-04-30T04:24:50.807Z,14.50
2019-04-30T04:27:20.265Z,14.50
2019-04-30T04:29:50.889Z,14.60
2019-04-30T04:32:24.141Z,14.60
2019-04-30T04:34:51.255Z,14.60
2019-04-30T04:37:20.938Z,14.60
2019-04-30T04:39:50.684Z,14.60
2019-04-30T04:42:21.116Z,14.60
2019-04-30T04:44:50.580Z,14.60
2019-04-30T04:47:21.005Z,14.60
2019-04-30T04:49:53.575Z,14.60
2019-04-30T04:52:22.033Z,14.60
2019-04-30T04:54:52.572Z,14.60
2019-04-30T04:57:22.979Z,14.60
2019-04-30T04:59:52.374Z,14.60
2019-04-30T05:02:39.867Z,14.60
2019-04-30T05:05:09.754Z,14.60
2019-04-30T05:07:39.946Z,14.60
2019-04-30T05:10:09.510Z,14.60
2019-04-30T05:12:39.807Z,14.60
2019-04-30T05:15:09.666Z,14.60
2019-04-30T05:17:39.865Z,14.60
2019-04-30T05:20:10.438Z,14.60
2019-04-30T05:22:39.805Z,14.60
2019-04-30T05:25:09.098Z,14.60
2019-04-30T05:27:39.207Z,14.60
2019-04-30T05:30:12.065Z,14.60
2019-04-30T05:32:40.596Z,14.60
2019-04-30T05:35:09.851Z,14.60
2019-04-30T05:37:39.099Z,14.70
2019-04-30T05:40:09.138Z,14.70
2019-04-30T05:42:38.948Z,14.70
2019-04-30T05:45:09.349Z,14.70
2019-04-30T05:47:39.105Z,14.70
2019-04-30T05:50:09.035Z,14.80
2019-04-30T05:52:39.791Z,14.80
2019-04-30T05:55:10.419Z,14.80
2019-04-30T05:57:52.745Z,14.80
2019-04-30T06:00:10.624Z,14.80
2019-04-30T06:02:40.077Z,14.80
2019-04-30T06:05:09.616Z,14.70
2019-04-30T06:07:39.461Z,14.80
2019-04-30T06:10:10.470Z,14.80
2019-04-30T06:12:43.771Z,14.70
2019-04-30T06:15:19.240Z,14.80
2019-04-30T06:18:00.706Z,14.80
2019-04-30T06:20:24.983Z,14.80
2019-04-30T06:22:54.304Z,14.80
2019-04-30T06:25:31.058Z,14.80
2019-04-30T06:27:54.507Z,14.80
2019-04-30T06:30:24.232Z,14.80
2019-04-30T06:32:53.921Z,14.80
2019-04-30T06:35:23.445Z,14.80
2019-04-30T06:37:52.697Z,14.80
2019-04-30T06:40:21.943Z,14.80
2019-04-30T06:42:51.200Z,14.80
2019-04-30T06:45:20.443Z,14.80
2019-04-30T06:47:49.689Z,14.80
2019-04-30T06:50:19.354Z,14.80
2019-04-30T06:52:56.285Z,14.80
2019-04-30T06:55:19.656Z,14.80
2019-04-30T06:57:49.701Z,14.80
2019-04-30T07:00:20.682Z,14.80
2019-04-30T07:02:50.039Z,14.80
2019-04-30T07:05:19.275Z,14.70
2019-04-30T07:08:09.818Z,14.80
2019-04-30T07:10:40.276Z,14.70
2019-04-30T07:13:18.660Z,14.80
2019-04-30T07:15:49.002Z,14.70
2019-04-30T07:18:18.991Z,14.70
2019-04-30T07:20:48.712Z,14.70
2019-04-30T07:23:18.828Z,14.70
2019-04-30T07:25:51.401Z,14.70
2019-04-30T07:28:19.266Z,14.70
2019-04-30T07:30:51.220Z,14.70
2019-04-30T07:33:20.946Z,14.70
2019-04-30T07:35:50.196Z,14.70
2019-04-30T07:38:19.519Z,14.70
2019-04-30T07:40:49.288Z,14.70
2019-04-30T07:43:19.075Z,14.70
2019-04-30T07:45:49.627Z,14.70
2019-04-30T07:48:25.790Z,14.70
2019-04-30T07:50:51.921Z,14.70
2019-04-30T07:53:20.883Z,14.70
2019-04-30T07:55:50.133Z,14.70
2019-04-30T07:58:20.511Z,14.70
2019-04-30T08:00:53.318Z,14.70
2019-04-30T08:03:30.227Z,14.70
2019-04-30T08:06:00.692Z,14.70
2019-04-30T08:08:30.404Z,14.70
2019-04-30T08:11:00.056Z,14.60
2019-04-30T08:13:32.472Z,14.70
2019-04-30T08:16:00.176Z,14.70
2019-04-30T08:18:29.570Z,14.70
2019-04-30T08:21:01.026Z,14.70
2019-04-30T08:23:34.721Z,14.70
2019-04-30T08:26:00.507Z,14.70
2019-04-30T08:28:30.423Z,14.70
2019-04-30T08:31:00.000Z,14.70
2019-04-30T08:33:29.415Z,14.70
2019-04-30T08:36:00.788Z,14.70
2019-04-30T08:38:30.080Z,14.70
2019-04-30T08:41:00.851Z,14.70
2019-04-30T08:43:30.468Z,14.70
2019-04-30T08:45:59.724Z,14.70
2019-04-30T08:48:43.650Z,14.70
2019-04-30T08:50:59.831Z,14.70
2019-04-30T08:53:32.849Z,14.70
2019-04-30T08:55:59.947Z,14.70
2019-04-30T08:58:29.344Z,14.70
2019-04-30T09:00:59.707Z,14.70
2019-04-30T09:03:29.633Z,14.70
2019-04-30T09:06:00.748Z,14.70
2019-04-30T09:08:30.135Z,14.70
2019-04-30T09:10:59.647Z,14.70
2019-04-30T09:13:29.155Z,14.70
2019-04-30T09:15:59.339Z,14.70
2019-04-30T09:18:29.242Z,14.70
2019-04-30T09:21:06.102Z,14.70
2019-04-30T09:23:42.999Z,14.70
2019-04-30T09:26:00.355Z,14.70
2019-04-30T09:28:29.616Z,14.70
2019-04-30T09:30:58.869Z,14.70
2019-04-30T09:33:29.432Z,14.70
2019-04-30T09:35:59.556Z,14.70
2019-04-30T09:38:29.123Z,14.70
2019-04-30T09:40:59.399Z,14.70
2019-04-30T09:43:29.028Z,14.70
2019-04-30T09:45:59.313Z,14.70
2019-04-30T09:48:30.504Z,14.70
2019-04-30T09:51:00.651Z,14.70
2019-04-30T09:53:30.825Z,14.70
2019-04-30T09:56:00.479Z,14.70
2019-04-30T09:58:30.060Z,14.70
2019-04-30T10:00:59.480Z,14.70
2019-04-30T10:03:30.865Z,14.70
2019-04-30T10:05:59.595Z,14.70
2019-04-30T10:08:30.750Z,14.70
2019-04-30T10:11:01.359Z,14.70
2019-04-30T10:13:30.687Z,14.70
2019-04-30T10:16:01.577Z,14.70
2019-04-30T10:18:30.818Z,14.70
2019-04-30T10:21:00.941Z,14.70
2019-04-30T10:23:30.505Z,14.70
2019-04-30T10:25:59.762Z,14.70
2019-04-30T10:28:29.020Z,14.70
2019-04-30T10:30:58.251Z,14.70
2019-04-30T10:33:28.705Z,14.70
2019-04-30T10:35:59.554Z,14.80
2019-04-30T10:38:29.337Z,14.70
2019-04-30T10:40:58.876Z,14.80
2019-04-30T10:43:31.910Z,14.70
2019-04-30T10:46:00.115Z,14.80
2019-04-30T10:48:29.367Z,14.80
2019-04-30T10:50:59.236Z,14.80
2019-04-30T10:53:28.840Z,14.80
2019-04-30T10:55:59.481Z,14.80
2019-04-30T10:58:29.012Z,14.80
2019-04-30T11:00:59.502Z,14.80
2019-04-30T11:03:29.210Z,14.80
2019-04-30T11:05:58.654Z,14.80
2019-04-30T11:08:27.938Z,14.80
2019-04-30T11:10:57.138Z,14.80
2019-04-30T11:13:27.560Z,14.70
2019-04-30T11:15:56.812Z,14.80
2019-04-30T11:18:26.266Z,14.80
2019-04-30T11:20:55.913Z,14.80
2019-04-30T11:23:25.453Z,14.80
2019-04-30T11:25:55.349Z,14.80
2019-04-30T11:28:25.566Z,14.80
2019-04-30T11:31:13.563Z,14.80
2019-04-30T11:33:43.327Z,14.80
2019-04-30T11:36:12.696Z,14.80
2019-04-30T11:38:43.087Z,14.80
2019-04-30T11:41:12.706Z,14.70
2019-04-30T11:43:41.968Z,14.70
2019-04-30T11:46:28.548Z,14.80
2019-04-30T11:48:58.726Z,14.80
2019-04-30T11:51:29.475Z,14.70
2019-04-30T11:53:59.440Z,14.80
2019-04-30T11:56:28.890Z,14.70
2019-04-30T11:58:58.881Z,14.80
2019-04-30T12:01:31.085Z,14.70
2019-04-30T12:04:00.340Z,14.80
2019-04-30T12:06:29.580Z,14.80
2019-04-30T12:09:19.846Z,14.80
2019-04-30T12:11:50.516Z,14.80
2019-04-30T12:14:20.261Z,14.80
2019-04-30T12:16:50.620Z,14.70
2019-04-30T12:19:20.215Z,14.70
2019-04-30T12:21:49.456Z,14.80
2019-04-30T12:24:18.708Z,14.80
2019-04-30T12:26:48.846Z,14.70
2019-04-30T12:29:19.091Z,14.70
2019-04-30T12:31:48.652Z,14.70
2019-04-30T12:34:17.903Z,14.70
2019-04-30T12:36:47.079Z,14.70
2019-04-30T12:39:16.256Z,14.70
2019-04-30T12:41:45.519Z,14.70
2019-04-30T12:44:14.759Z,14.70
2019-04-30T12:46:44.899Z,14.70
2019-04-30T12:49:14.155Z,14.70
2019-04-30T12:51:48.836Z,14.70
2019-04-30T12:54:38.916Z,14.70
2019-04-30T12:57:11.165Z,14.70
2019-04-30T12:59:40.653Z,14.70
2019-04-30T13:02:09.899Z,14.70
2019-04-30T13:04:39.450Z,14.70
2019-04-30T13:07:10.603Z,14.70
2019-04-30T13:09:40.478Z,14.70
2019-04-30T13:12:11.133Z,14.70
2019-04-30T13:14:51.421Z,14.70
2019-04-30T13:17:11.655Z,14.70
2019-04-30T13:19:40.900Z,14.70
2019-04-30T13:22:11.367Z,14.70
2019-04-30T13:24:41.890Z,14.70
2019-04-30T13:27:11.231Z,14.70
2019-04-30T13:29:42.163Z,14.70
2019-04-30T13:32:11.343Z,14.70
2019-04-30T13:34:46.220Z,14.70
2019-04-30T13:37:15.443Z,14.70
2019-04-30T13:40:04.295Z,14.70
2019-04-30T13:42:41.194Z,14.70
2019-04-30T13:45:10.443Z,14.70
2019-04-30T13:47:39.680Z,14.70
2019-04-30T13:50:09.428Z,14.70
2019-04-30T13:52:39.065Z,14.70
2019-04-30T13:55:10.734Z,14.70
2019-04-30T13:57:39.186Z,14.70
2019-04-30T14:00:12.275Z,14.70
2019-04-30T14:02:52.147Z,14.70
2019-04-30T14:05:21.404Z,14.70
2019-04-30T14:07:54.991Z,14.70
2019-04-30T14:10:24.553Z,14.70
2019-04-30T14:12:55.419Z,14.70
2019-04-30T14:15:24.596Z,14.70
2019-04-30T14:17:53.847Z,14.70
2019-04-30T14:20:23.102Z,14.70
2019-04-30T14:22:52.356Z,14.70
2019-04-30T14:25:21.595Z,14.70
2019-04-30T14:27:54.526Z,14.70
2019-04-30T14:30:21.860Z,14.70
2019-04-30T14:32:51.118Z,14.70
2019-04-30T14:35:20.371Z,14.70
2019-04-30T14:37:49.754Z,14.70
2019-04-30T14:40:20.817Z,14.70
2019-04-30T14:42:52.393Z,14.70
2019-04-30T14:45:32.860Z,14.70
2019-04-30T14:48:04.902Z,14.70
2019-04-30T14:50:38.431Z,14.70
2019-04-30T14:53:17.815Z,14.70
2019-04-30T14:56:08.474Z,14.70
2019-04-30T14:58:30.247Z,14.70
2019-04-30T15:01:10.254Z,14.60
2019-04-30T15:03:39.590Z,14.70
2019-04-30T15:06:08.844Z,14.70
2019-04-30T15:08:39.391Z,14.70
2019-04-30T15:11:09.150Z,14.70
2019-04-30T15:13:39.405Z,14.60
2019-04-30T15:16:08.783Z,14.60
2019-04-30T15:18:38.855Z,14.70
2019-04-30T15:21:09.601Z,14.60
2019-04-30T15:23:57.970Z,14.70
2019-04-30T15:26:22.875Z,14.70
2019-04-30T15:28:49.216Z,14.60
2019-04-30T15:31:18.561Z,14.60
2019-04-30T15:34:01.773Z,14.60
2019-04-30T15:36:20.552Z,14.60
2019-04-30T15:39:00.427Z,14.60
2019-04-30T15:41:30.859Z,14.60
2019-04-30T15:44:00.479Z,14.60
2019-04-30T15:46:29.674Z,14.60
2019-04-30T15:48:58.900Z,14.60
2019-04-30T15:51:28.152Z,14.60
2019-04-30T15:53:57.414Z,14.60
2019-04-30T15:56:35.204Z,14.60
2019-04-30T15:59:11.369Z,14.60
2019-04-30T16:01:42.800Z,14.60
2019-04-30T16:04:14.644Z,14.60
2019-04-30T16:06:43.899Z,14.60
2019-04-30T16:09:28.454Z,14.60
2019-04-30T16:12:15.406Z,14.60
2019-04-30T16:14:44.718Z,14.60
2019-04-30T16:17:24.715Z,14.60
2019-04-30T16:19:54.049Z,14.60
2019-04-30T16:22:23.575Z,14.60
2019-04-30T16:24:54.641Z,14.50
2019-04-30T16:27:23.860Z,14.50
2019-04-30T16:29:53.337Z,14.50
2019-04-30T16:32:24.144Z,14.50
2019-04-30T16:34:53.468Z,14.50
2019-04-30T16:37:22.719Z,14.60
2019-04-30T16:39:51.887Z,14.60
2019-04-30T16:42:21.144Z,14.50
2019-04-30T16:44:50.411Z,14.50
2019-04-30T16:47:20.035Z,14.60
2019-04-30T16:49:49.447Z,14.50
2019-04-30T16:52:19.113Z,14.50
2019-04-30T16:54:49.712Z,14.50
2019-04-30T16:57:19.083Z,14.50
2019-04-30T16:59:50.088Z,14.60
2019-04-30T17:02:19.348Z,14.50
2019-04-30T17:04:52.718Z,14.50
2019-04-30T17:07:23.614Z,14.50
2019-04-30T17:09:54.504Z,14.50
2019-04-30T17:12:25.383Z,14.50
2019-04-30T17:15:12.496Z,14.50
2019-04-30T17:17:41.823Z,14.50
2019-04-30T17:20:11.061Z,14.50
2019-04-30T17:22:40.321Z,14.50
2019-04-30T17:25:09.572Z,14.50
2019-04-30T17:27:39.311Z,14.50
2019-04-30T17:30:11.039Z,14.50
2019-04-30T17:32:40.625Z,14.50
2019-04-30T17:35:09.868Z,14.50
2019-04-30T17:37:39.115Z,14.50
2019-04-30T17:40:09.586Z,14.50
2019-04-30T17:42:38.823Z,14.50
2019-04-30T17:45:09.472Z,14.40
2019-04-30T17:47:38.960Z,14.40
2019-04-30T17:50:08.909Z,14.40
2019-04-30T17:52:38.423Z,14.50
2019-04-30T17:55:09.634Z,14.40
2019-04-30T17:57:40.333Z,14.40
2019-04-30T18:00:18.718Z,14.50
2019-04-30T18:02:42.535Z,14.50
2019-04-30T18:05:11.793Z,14.40
2019-04-30T18:07:41.042Z,14.40
2019-04-30T18:10:11.935Z,14.40
2019-04-30T18:12:41.260Z,14.40
2019-04-30T18:15:15.856Z,14.40
2019-04-30T18:17:46.738Z,14.40
2019-04-30T18:20:20.559Z,14.40
2019-04-30T18:22:54.503Z,14.40
2019-04-30T18:25:25.379Z,14.40
2019-04-30T18:28:02.321Z,14.40
2019-04-30T18:30:33.204Z,14.40
2019-04-30T18:33:02.766Z,14.40
2019-04-30T18:35:32.095Z,14.40
2019-04-30T18:38:01.545Z,14.40
2019-04-30T18:40:30.869Z,14.40
2019-04-30T18:43:01.375Z,14.40
2019-04-30T18:45:30.696Z,14.40
2019-04-30T18:48:01.731Z,14.40
2019-04-30T18:50:32.051Z,14.30
2019-04-30T18:53:02.935Z,14.30
2019-04-30T18:55:32.255Z,14.30
2019-04-30T18:58:01.631Z,14.40
2019-04-30T19:00:42.515Z,14.30
2019-04-30T19:03:11.839Z,14.30
2019-04-30T19:05:42.728Z,14.30
2019-04-30T19:08:13.611Z,14.30
2019-04-30T19:10:53.569Z,14.30
2019-04-30T19:13:27.183Z,14.30
2019-04-30T19:16:18.807Z,14.30
2019-04-30T19:18:38.998Z,14.30
2019-04-30T19:21:09.816Z,14.30
2019-04-30T19:23:39.113Z,14.30
2019-04-30T19:26:08.312Z,14.30
2019-04-30T19:28:38.699Z,14.30
2019-04-30T19:31:11.337Z,14.30
2019-04-30T19:33:39.022Z,14.30
2019-04-30T19:36:09.907Z,14.30
2019-04-30T19:38:39.324Z,14.30
2019-04-30T19:41:10.596Z,14.30
2019-04-30T19:43:39.427Z,14.30
2019-04-30T19:46:09.752Z,14.30
2019-04-30T19:48:38.991Z,14.30
2019-04-30T19:51:08.834Z,14.30
2019-04-30T19:53:39.631Z,14.30
2019-04-30T19:56:09.025Z,14.30
2019-04-30T19:58:55.497Z,14.30
2019-04-30T20:01:09.528Z,14.30
2019-04-30T20:03:40.744Z,14.30
2019-04-30T20:06:10.217Z,14.30
2019-04-30T20:08:39.467Z,14.30
2019-04-30T20:11:08.648Z,14.20
2019-04-30T20:13:37.895Z,14.30
2019-04-30T20:16:07.152Z,14.20
2019-04-30T20:18:36.387Z,14.20
2019-04-30T20:21:09.089Z,14.30
2019-04-30T20:23:38.156Z,14.20
2019-04-30T20:26:07.494Z,14.20
2019-04-30T20:28:41.437Z,14.30
2019-04-30T20:31:09.150Z,14.30
2019-04-30T20:33:39.664Z,14.20
2019-04-30T20:36:09.285Z,14.20
2019-04-30T20:38:42.023Z,14.20
2019-04-30T20:41:12.560Z,14.20
2019-04-30T20:43:41.815Z,14.20
2019-04-30T20:46:11.054Z,14.20
2019-04-30T20:48:41.178Z,14.20
2019-04-30T20:51:10.527Z,14.20
2019-04-30T20:53:41.015Z,14.20
2019-04-30T20:56:11.704Z,14.20
2019-04-30T20:58:54.582Z,14.20
2019-04-30T21:01:11.816Z,14.20
2019-04-30T21:03:41.069Z,14.20
2019-04-30T21:06:10.325Z,14.20
2019-04-30T21:08:39.600Z,14.20
2019-04-30T21:11:09.904Z,14.20
2019-04-30T21:13:39.275Z,14.20
2019-04-30T21:16:09.768Z,14.10
2019-04-30T21:18:39.234Z,14.10
2019-04-30T21:21:08.560Z,14.10
2019-04-30T21:23:39.224Z,14.10
2019-04-30T21:26:08.675Z,14.20
2019-04-30T21:28:39.330Z,14.10
2019-04-30T21:31:26.979Z,14.20
2019-04-30T21:33:58.769Z,14.10
2019-04-30T21:36:28.733Z,14.20
2019-04-30T21:38:59.061Z,14.10
2019-04-30T21:41:29.681Z,14.10
2019-04-30T21:44:00.588Z,14.10
2019-04-30T21:46:29.841Z,14.10
2019-04-30T21:49:00.143Z,14.10
2019-04-30T21:51:29.393Z,14.10
2019-04-30T21:53:58.643Z,14.10
2019-04-30T21:56:27.899Z,14.10
2019-04-30T21:58:57.135Z,14.10
2019-04-30T22:01:26.383Z,14.10
2019-04-30T22:03:56.790Z,14.10
2019-04-30T22:06:26.048Z,14.10
2019-04-30T22:08:55.318Z,14.10
2019-04-30T22:11:24.551Z,14.10
2019-04-30T22:13:53.800Z,14.10
2019-04-30T22:16:23.055Z,14.10
2019-04-30T22:18:52.292Z,14.10
2019-04-30T22:21:21.544Z,14.10
2019-04-30T22:23:50.796Z,14.10
2019-04-30T22:26:20.047Z,14.10
2019-04-30T22:28:49.531Z,14.10
2019-04-30T22:31:19.785Z,14.10
2019-04-30T22:33:49.307Z,14.10
2019-04-30T22:36:26.019Z,14.10
2019-04-30T22:38:56.916Z,14.10
2019-04-30T22:41:29.581Z,14.10
2019-04-30T22:43:58.679Z,14.10
2019-04-30T22:46:29.397Z,14.10
2019-04-30T22:48:58.839Z,14.00
2019-04-30T22:51:28.095Z,14.10
2019-04-30T22:53:57.337Z,14.00
2019-04-30T22:56:26.583Z,14.00
2019-04-30T22:58:55.840Z,14.00
2019-04-30T23:01:29.196Z,14.00
2019-04-30T23:04:00.071Z,14.00
2019-04-30T23:06:29.324Z,14.00
2019-04-30T23:08:58.617Z,14.00
2019-04-30T23:11:27.811Z,14.00
2019-04-30T23:13:57.052Z,14.00
2019-04-30T23:16:26.303Z,14.00
2019-04-30T23:18:55.531Z,13.90
2019-04-30T23:21:24.783Z,14.00
2019-04-30T23:23:54.021Z,13.90
2019-04-30T23:26:23.271Z,14.00
2019-04-30T23:28:52.447Z,13.90
2019-04-30T23:31:21.700Z,14.00
2019-04-30T23:33:50.941Z,14.00
2019-04-30T23:36:20.218Z,13.90
2019-04-30T23:38:49.448Z,14.00
2019-04-30T23:41:18.705Z,13.90
2019-04-30T23:43:47.952Z,13.90
2019-04-30T23:46:17.205Z,13.90
2019-04-30T23:48:46.460Z,13.90
2019-04-30T23:51:15.717Z,13.90
2019-04-30T23:53:44.952Z,13.90
2019-04-30T23:56:14.212Z,13.90
2019-04-30T23:58:43.463Z,13.90
